Time;durP1;ratioP1;P1;durP2;ratioP2;P2;SDS_P1;SDS_P2;PMS_P1;PMS_P2;Temp;Humidity;BMP_temperature;BMP_pressure;BME280_temperature;BME280_humidity;BME280_pressure;Samples;Min_cycle;Max_cycle;Signal;HPM_P1;HPM_P2
2022/09/19 00:01:51;;;;;;;3.20;2.33;;;;;;;9.35;58.65;94986.47;5005865;28;20242;-68
2022/09/19 00:04:26;;;;;;;3.30;2.10;;;;;;;9.31;59.25;94980.69;5007913;28;20611;-68
2022/09/19 00:06:53;;;;;;;3.80;2.80;;;;;;;9.36;58.88;94980.28;5003738;28;20234;-68
2022/09/19 00:09:22;;;;;;;3.45;2.60;;;;;;;9.58;58.20;94974.63;5008147;28;20226;-66
2022/09/19 00:11:50;;;;;;;3.25;2.70;;;;;;;9.36;59.25;94975.03;5002439;28;20230;-67
2022/09/19 00:14:20;;;;;;;2.85;2.65;;;;;;;9.34;59.53;94977.78;5006822;28;20583;-66
2022/09/19 00:16:47;;;;;;;3.28;2.40;;;;;;;9.39;59.18;94970.31;5007097;28;20269;-68
2022/09/19 00:19:18;;;;;;;2.22;2.03;;;;;;;9.27;59.78;94969.69;5007809;28;20783;-68
2022/09/19 00:21:46;;;;;;;7.00;2.65;;;;;;;9.10;60.57;94970.41;5005795;28;20578;-66
2022/09/19 00:27:00;;;;;;;3.33;2.60;;;;;;;9.06;60.90;94961.16;5007251;28;20875;-68
2022/09/19 00:29:25;;;;;;;4.78;2.80;;;;;;;9.02;61.40;94962.44;5010769;28;21063;-68
2022/09/19 00:31:51;;;;;;;3.17;2.67;;;;;;;8.96;61.30;94950.72;5007847;28;20270;-66
2022/09/19 00:34:17;;;;;;;3.33;2.40;;;;;;;8.97;61.59;94964.66;5010555;28;20219;-68
2022/09/19 00:36:44;;;;;;;2.33;2.13;;;;;;;9.06;61.37;94966.41;5009975;28;20269;-66
2022/09/19 00:39:13;;;;;;;2.70;2.22;;;;;;;9.08;61.24;94971.53;5016064;28;20234;-67
2022/09/19 00:41:39;;;;;;;2.58;2.08;;;;;;;9.05;61.14;94970.03;5006718;28;20227;-66
2022/09/19 00:44:23;;;;;;;3.80;2.47;;;;;;;8.89;61.84;94967.19;5011399;28;20300;-66
2022/09/19 00:46:52;;;;;;;2.88;2.58;;;;;;;8.91;62.16;94963.44;5008916;28;20242;-66
2022/09/19 00:49:19;;;;;;;3.63;2.47;;;;;;;8.82;62.28;94964.28;5011195;28;20256;-66
2022/09/19 00:51:50;;;;;;;2.88;2.22;;;;;;;8.74;62.63;94978.13;5009399;28;20289;-66
2022/09/19 00:54:20;;;;;;;3.25;2.38;;;;;;;8.84;62.48;94973.66;5007525;28;20359;-66
2022/09/19 00:56:50;;;;;;;3.70;2.40;;;;;;;9.00;62.27;94977.50;5005629;28;20261;-66
2022/09/19 00:59:18;;;;;;;2.53;2.33;;;;;;;9.08;61.21;94971.53;5005761;28;20220;-67
2022/09/19 01:01:45;;;;;;;3.70;2.37;;;;;;;8.70;62.11;94976.75;5009444;28;20576;-67
2022/09/19 01:04:21;;;;;;;4.03;2.27;;;;;;;8.69;62.30;94971.66;5025655;28;20923;-67
2022/09/19 01:06:55;;;;;;;5.25;2.58;;;;;;;8.54;63.24;94966.00;5007266;28;20659;-67
2022/09/19 01:09:44;;;;;;;2.70;2.37;;;;;;;8.84;62.54;94963.19;5009876;28;20258;-67
2022/09/19 01:12:22;;;;;;;2.57;2.37;;;;;;;8.65;62.81;94965.84;4935356;28;20260;-68
2022/09/19 01:14:54;;;;;;;3.13;2.40;;;;;;;8.66;62.84;94969.28;4935966;29;20985;-67
2022/09/19 01:17:26;;;;;;;5.07;2.57;;;;;;;8.60;63.01;94978.56;4949084;28;20227;-67
2022/09/19 01:20:15;;;;;;;3.20;2.60;;;;;;;8.64;62.88;94977.31;4950126;28;20303;-67
2022/09/19 01:23:02;;;;;;;3.88;2.35;;;;;;;8.68;62.35;94967.38;4930684;28;20225;-67
2022/09/19 01:25:46;;;;;;;4.15;2.70;;;;;;;8.70;62.05;94968.88;4933187;28;20847;-67
2022/09/19 01:28:34;;;;;;;5.45;2.80;;;;;;;8.59;62.30;94963.81;4934156;28;20910;-67
2022/09/19 01:31:18;;;;;;;3.53;2.70;;;;;;;8.44;62.55;94960.78;4920269;28;20238;-67
2022/09/19 01:34:01;;;;;;;4.00;2.67;;;;;;;8.55;61.55;94958.03;4948637;29;20331;-67
2022/09/19 01:36:32;;;;;;;4.10;2.20;;;;;;;8.46;60.60;94951.00;4932826;29;20224;-68
2022/09/19 01:39:00;;;;;;;3.17;2.50;;;;;;;8.32;60.84;94954.03;4931865;29;20282;-67
2022/09/19 01:41:25;;;;;;;3.40;2.00;;;;;;;8.36;60.55;94955.38;4938390;28;20675;-67
2022/09/19 01:43:50;;;;;;;2.60;1.90;;;;;;;8.36;59.90;94948.34;4949738;28;20312;-67
2022/09/19 01:46:28;;;;;;;1.87;1.70;;;;;;;8.50;58.71;94946.28;4952074;28;21006;-68
2022/09/19 01:48:58;;;;;;;2.60;1.30;;;;;;;8.32;58.72;94952.22;4954258;28;20325;-67
2022/09/19 01:51:44;;;;;;;3.90;1.33;;;;;;;8.51;58.26;94951.41;5006745;28;20588;-67
2022/09/19 01:54:22;;;;;;;1.67;1.40;;;;;;;8.45;58.57;94951.16;5001572;28;20257;-67
2022/09/19 01:57:01;;;;;;;2.40;1.63;;;;;;;8.32;59.49;94952.22;5004632;28;20265;-67
2022/09/19 01:59:51;;;;;;;1.87;1.43;;;;;;;8.41;59.87;94952.38;5007915;28;20812;-67
2022/09/19 02:02:35;;;;;;;2.40;1.80;;;;;;;8.57;60.13;94944.75;5007675;28;20222;-67
2022/09/19 02:05:05;;;;;;;4.43;2.30;;;;;;;8.48;60.18;94945.63;5009012;28;20734;-67
2022/09/19 02:08:20;;;;;;;2.90;2.10;;;;;;;8.14;62.01;94944.22;5009192;28;20268;-68
2022/09/19 02:11:00;;;;;;;3.40;1.90;;;;;;;8.17;61.85;94950.97;4952139;28;20256;-67
2022/09/19 02:13:29;;;;;;;3.57;2.33;;;;;;;8.40;61.37;94943.69;4956549;28;20226;-67
2022/09/19 02:16:04;;;;;;;1.63;1.53;;;;;;;8.07;62.37;94951.00;4955113;28;20302;-67
2022/09/19 02:18:38;;;;;;;2.75;1.70;;;;;;;7.98;62.58;94935.28;4952775;28;20228;-67
2022/09/19 02:21:10;;;;;;;2.57;1.80;;;;;;;7.92;63.11;94944.53;4971083;28;20261;-67
2022/09/19 02:23:47;;;;;;;2.80;2.20;;;;;;;7.92;63.33;94940.09;4955624;28;20255;-67
2022/09/19 02:26:20;;;;;;;2.33;2.13;;;;;;;7.97;63.29;94936.25;4953662;28;20310;-66
2022/09/19 02:28:49;;;;;;;2.53;2.00;;;;;;;8.13;62.33;94928.66;4969638;28;20227;-67
2022/09/19 02:31:16;;;;;;;3.57;2.33;;;;;;;8.17;62.46;94925.63;4952466;28;20227;-68
2022/09/19 02:33:47;;;;;;;3.67;2.33;;;;;;;8.16;62.38;94934.44;4954972;28;20249;-66
2022/09/19 02:36:21;;;;;;;3.00;2.50;;;;;;;8.30;62.26;94927.13;4955550;28;20236;-67
2022/09/19 02:39:17;;;;;;;2.73;2.33;;;;;;;8.18;62.55;94926.47;4969351;28;20224;-67
2022/09/19 02:41:52;;;;;;;4.30;2.40;;;;;;;7.97;63.42;94931.03;4965468;28;20231;-67
2022/09/19 02:44:52;;;;;;;3.13;2.80;;;;;;;8.04;62.88;94926.88;4968702;28;20222;-67
2022/09/19 02:47:34;;;;;;;3.43;2.50;;;;;;;8.00;62.99;94935.97;5004352;28;20223;-67
2022/09/19 02:50:14;;;;;;;2.60;2.40;;;;;;;8.02;63.30;94934.03;5024080;28;20194;-67
2022/09/19 02:52:41;;;;;;;2.90;2.70;;;;;;;7.84;64.21;94942.59;5005352;28;20218;-67
2022/09/19 02:55:13;;;;;;;4.37;3.10;;;;;;;7.87;64.58;94941.47;5003289;28;20600;-67
2022/09/19 02:57:43;;;;;;;5.63;2.40;;;;;;;7.74;64.62;94933.88;5006742;28;20226;-67
2022/09/19 03:00:12;;;;;;;7.17;2.70;;;;;;;7.58;65.68;94934.41;5003301;28;20218;-66
2022/09/19 03:02:56;;;;;;;5.23;3.00;;;;;;;7.78;65.01;94935.28;5009623;28;20223;-66
2022/09/19 03:05:25;;;;;;;5.73;2.80;;;;;;;7.81;64.86;94935.00;5005711;28;20222;-67
2022/09/19 03:08:15;;;;;;;3.43;2.40;;;;;;;7.80;65.23;94935.13;5004706;28;20200;-67
2022/09/19 03:10:46;;;;;;;4.33;2.90;;;;;;;7.70;65.04;94940.38;5002169;28;20219;-67
2022/09/19 03:13:12;;;;;;;5.93;2.80;;;;;;;7.62;65.51;94937.63;5007376;28;20230;-66
2022/09/19 03:15:57;;;;;;;5.00;2.83;;;;;;;7.83;65.25;94935.69;5009782;28;20225;-66
2022/09/19 03:18:25;;;;;;;4.63;2.90;;;;;;;7.65;65.75;94937.34;5005442;28;20235;-66
2022/09/19 03:21:01;;;;;;;5.57;3.00;;;;;;;7.75;65.76;94943.38;5002638;28;20253;-66
2022/09/19 03:23:39;;;;;;;5.77;3.33;;;;;;;8.07;64.98;94932.69;5008554;28;20253;-67
2022/09/19 03:26:09;;;;;;;6.47;3.40;;;;;;;7.84;65.50;94934.72;5002373;28;20278;-66
2022/09/19 03:28:35;;;;;;;4.97;3.13;;;;;;;7.65;66.05;94938.16;5008468;28;20222;-66
2022/09/19 03:31:00;;;;;;;7.23;3.57;;;;;;;7.68;66.28;94948.34;5006648;28;20226;-66
2022/09/19 03:33:27;;;;;;;4.20;3.07;;;;;;;7.86;65.51;94937.22;5007281;28;20290;-66
2022/09/19 03:35:56;;;;;;;5.20;3.10;;;;;;;7.59;66.29;94940.47;5007881;28;20234;-66
2022/09/19 03:38:22;;;;;;;5.30;3.37;;;;;;;7.61;66.83;94936.75;5006972;28;20310;-66
2022/09/19 03:40:47;;;;;;;7.57;4.20;;;;;;;7.59;66.52;94936.09;5003273;28;20302;-66
2022/09/19 03:43:13;;;;;;;5.30;3.43;;;;;;;7.45;67.37;94920.75;5008133;28;20294;-66
2022/09/19 03:45:38;;;;;;;6.17;3.60;;;;;;;7.23;68.17;94920.03;5008260;28;20227;-66
2022/09/19 03:48:04;;;;;;;5.97;3.33;;;;;;;7.33;67.60;94916.63;5008160;28;20454;-67
2022/09/19 03:50:29;;;;;;;3.77;3.30;;;;;;;7.54;66.91;94919.13;5008603;28;20226;-67
2022/09/19 03:52:55;;;;;;;6.77;3.53;;;;;;;7.49;66.91;94917.75;5008027;28;20214;-67
2022/09/19 03:55:20;;;;;;;9.67;3.60;;;;;;;7.56;66.55;94912.78;5008919;28;20198;-68
2022/09/19 03:57:46;;;;;;;6.33;3.77;;;;;;;7.55;66.85;94916.38;5006991;28;20293;-66
2022/09/19 04:00:12;;;;;;;6.77;3.90;;;;;;;7.64;66.23;94905.06;5006166;28;20214;-65
2022/09/19 04:02:37;;;;;;;5.37;3.73;;;;;;;7.74;65.82;94911.16;5009320;28;20219;-68
2022/09/19 04:05:03;;;;;;;6.20;3.33;;;;;;;7.65;65.96;94911.16;5004901;28;20233;-68
2022/09/19 04:07:29;;;;;;;3.67;2.77;;;;;;;7.58;66.48;94908.25;5009593;28;20219;-68
2022/09/19 04:09:55;;;;;;;4.17;3.40;;;;;;;7.73;65.77;94904.28;5007002;28;20226;-68
2022/09/19 04:12:22;;;;;;;4.63;3.10;;;;;;;7.59;65.77;94909.94;5012920;28;20226;-65
2022/09/19 04:14:48;;;;;;;4.13;2.67;;;;;;;7.58;65.97;94907.44;5012856;28;20230;-65
2022/09/19 04:17:14;;;;;;;3.80;3.23;;;;;;;7.65;65.58;94906.75;5009131;28;20290;-65
2022/09/19 04:19:42;;;;;;;5.03;2.90;;;;;;;7.66;65.50;94911.00;5008507;28;20239;-66
2022/09/19 04:22:08;;;;;;;8.60;3.20;;;;;;;7.50;65.82;94914.16;5009823;28;20245;-65
2022/09/19 04:24:33;;;;;;;5.03;3.30;;;;;;;7.56;66.18;94911.97;5024137;28;20222;-68
2022/09/19 04:26:59;;;;;;;7.77;3.50;;;;;;;7.60;65.62;94915.97;5010458;28;20229;-68
2022/09/19 04:29:27;;;;;;;4.63;3.57;;;;;;;7.57;65.92;94916.25;5007185;28;20223;-67
2022/09/19 04:31:54;;;;;;;6.10;3.63;;;;;;;7.40;66.36;94905.47;5011841;28;20242;-66
2022/09/19 04:34:19;;;;;;;6.57;3.70;;;;;;;7.47;66.75;94909.19;5011556;28;20207;-68
2022/09/19 04:36:48;;;;;;;4.40;3.60;;;;;;;7.59;66.60;94906.47;5010226;28;20235;-68
2022/09/19 04:39:14;;;;;;;8.83;4.27;;;;;;;7.59;66.32;94909.06;5010164;28;20238;-68
2022/09/19 04:41:39;;;;;;;10.27;4.10;;;;;;;7.53;66.68;94905.22;5009003;28;20223;-67
2022/09/19 04:44:06;;;;;;;7.63;4.23;;;;;;;7.54;66.74;94903.41;5010825;28;20226;-66
2022/09/19 04:46:32;;;;;;;7.43;3.60;;;;;;;7.69;66.17;94907.28;5011240;28;20217;-66
2022/09/19 04:48:59;;;;;;;9.70;3.80;;;;;;;7.72;66.03;94902.63;5011397;28;20233;-63
2022/09/19 04:51:27;;;;;;;5.27;3.47;;;;;;;7.54;66.78;94914.72;5007865;28;20290;-64
2022/09/19 04:53:53;;;;;;;7.57;3.60;;;;;;;7.56;66.29;94911.97;5004852;28;20231;-65
2022/09/19 04:56:20;;;;;;;6.87;3.80;;;;;;;7.60;66.43;94908.13;5009421;28;20226;-64
2022/09/19 04:58:46;;;;;;;8.13;4.20;;;;;;;7.57;66.80;94901.38;5010112;28;20217;-64
2022/09/19 05:01:13;;;;;;;7.47;4.00;;;;;;;7.58;66.70;94910.03;5009934;28;20207;-64
2022/09/19 05:03:43;;;;;;;8.57;4.73;;;;;;;7.57;67.04;94897.94;5011899;28;20231;-64
2022/09/19 05:06:08;;;;;;;9.53;5.03;;;;;;;7.68;66.88;94906.47;5009857;28;20350;-66
2022/09/19 05:08:34;;;;;;;8.77;5.20;;;;;;;7.78;65.93;94909.09;5009831;28;20314;-65
2022/09/19 05:11:02;;;;;;;7.80;4.90;;;;;;;7.84;65.98;94897.25;5008501;28;20214;-66
2022/09/19 05:13:30;;;;;;;7.73;4.90;;;;;;;7.95;65.96;94908.41;5009712;28;20211;-65
2022/09/19 05:15:57;;;;;;;8.27;5.13;;;;;;;7.94;65.89;94911.19;5009136;28;20231;-64
2022/09/19 05:18:23;;;;;;;9.67;4.80;;;;;;;7.98;66.08;94912.53;5009232;28;20222;-65
2022/09/19 05:20:52;;;;;;;7.67;4.87;;;;;;;8.11;65.06;94907.84;5005728;28;20241;-65
2022/09/19 05:23:17;;;;;;;4.90;4.30;;;;;;;8.06;64.59;94909.22;5009179;28;20222;-64
2022/09/19 05:25:43;;;;;;;4.70;3.87;;;;;;;7.90;64.54;94923.69;5009814;28;20211;-64
2022/09/19 05:28:09;;;;;;;4.13;2.90;;;;;;;7.99;63.65;94929.06;5012210;28;20270;-64
2022/09/19 05:30:38;;;;;;;3.53;2.30;;;;;;;8.36;62.06;94919.53;5005809;28;20215;-64
2022/09/19 05:33:06;;;;;;;4.30;2.40;;;;;;;8.47;60.65;94913.31;5008415;28;20242;-66
2022/09/19 05:35:32;;;;;;;4.13;2.20;;;;;;;8.68;60.13;94913.13;5009137;28;20227;-67
2022/09/19 05:37:58;;;;;;;4.23;2.57;;;;;;;8.56;60.33;94917.72;5008162;28;20213;-67
2022/09/19 05:40:25;;;;;;;3.27;2.40;;;;;;;8.67;60.65;94923.78;5007912;28;20211;-67
2022/09/19 05:42:53;;;;;;;5.40;3.20;;;;;;;8.67;60.92;94924.59;5009056;28;20616;-67
2022/09/19 05:45:20;;;;;;;3.70;3.30;;;;;;;8.66;61.33;94922.97;5009321;28;20249;-67
2022/09/19 05:47:46;;;;;;;4.43;3.70;;;;;;;8.65;61.49;94918.66;5005443;28;20573;-67
2022/09/19 05:50:13;;;;;;;6.23;3.13;;;;;;;8.70;61.28;94934.81;5003590;28;20227;-66
2022/09/19 05:55:26;;;;;;;6.23;4.33;;;;;;;8.78;60.85;94929.66;5009490;28;20275;-67
2022/09/19 05:57:56;;;;;;;7.87;3.73;;;;;;;8.87;60.38;94930.59;5008730;28;20230;-67
2022/09/19 06:00:25;;;;;;;4.57;3.42;;;;;;;8.85;59.77;94927.31;5004094;28;20226;-66
2022/09/19 06:02:56;;;;;;;5.33;4.03;;;;;;;8.83;60.05;94924.81;5010466;28;20230;-66
2022/09/19 06:05:22;;;;;;;5.88;4.00;;;;;;;8.93;60.41;94922.19;5008201;28;20226;-67
2022/09/19 06:07:48;;;;;;;4.87;4.20;;;;;;;9.02;59.97;94923.94;5020249;28;20292;-66
2022/09/19 06:10:14;;;;;;;6.40;4.27;;;;;;;8.88;60.51;94915.72;5007775;28;20293;-67
2022/09/19 06:12:39;;;;;;;8.43;5.03;;;;;;;9.17;60.05;94929.53;5002491;28;20789;-70
2022/09/19 06:15:05;;;;;;;8.13;4.87;;;;;;;9.26;59.15;94920.78;5009767;28;20234;-65
2022/09/19 06:17:30;;;;;;;5.83;4.67;;;;;;;9.16;59.01;94920.00;5007942;28;20222;-65
2022/09/19 06:19:56;;;;;;;6.85;4.57;;;;;;;9.21;59.47;94919.56;5006792;28;20222;-66
2022/09/19 06:22:22;;;;;;;7.88;4.80;;;;;;;9.26;59.19;94926.03;5008092;28;20207;-66
2022/09/19 06:24:47;;;;;;;6.40;4.13;;;;;;;9.27;59.13;94932.09;5008579;28;20423;-64
2022/09/19 06:27:12;;;;;;;7.83;4.60;;;;;;;9.38;59.18;94931.06;5009048;28;20276;-66
2022/09/19 06:29:38;;;;;;;6.03;4.60;;;;;;;9.33;59.46;94935.94;5006168;28;20313;-66
2022/09/19 06:32:03;;;;;;;6.53;4.37;;;;;;;9.41;59.20;94923.75;5010804;28;20238;-67
2022/09/19 06:34:29;;;;;;;6.97;4.20;;;;;;;9.50;58.43;94928.09;5009315;28;20318;-66
2022/09/19 06:36:55;;;;;;;4.05;3.65;;;;;;;9.42;58.69;94932.44;5007196;28;20241;-66
2022/09/19 06:39:21;;;;;;;4.28;3.80;;;;;;;9.63;58.19;94925.13;5007281;28;20273;-66
2022/09/19 06:41:47;;;;;;;4.80;3.50;;;;;;;9.78;57.37;94929.84;5008664;28;20250;-67
2022/09/19 06:44:13;;;;;;;4.03;3.27;;;;;;;9.90;56.17;94929.50;5007877;28;20223;-67
2022/09/19 06:46:38;;;;;;;5.85;4.38;;;;;;;9.86;56.24;94927.31;5006530;28;20211;-65
2022/09/19 06:49:07;;;;;;;4.53;3.78;;;;;;;9.96;56.42;94924.63;5007738;28;20306;-66
2022/09/19 06:51:35;;;;;;;6.82;3.70;;;;;;;10.00;56.00;94926.81;5002847;28;20238;-66
2022/09/19 06:54:01;;;;;;;5.30;3.47;;;;;;;10.08;56.25;94929.50;5002800;28;20247;-65
2022/09/19 06:56:27;;;;;;;6.65;3.30;;;;;;;10.10;55.49;94932.81;5008435;28;20231;-67
2022/09/19 06:58:52;;;;;;;3.67;3.28;;;;;;;10.13;55.10;94922.00;5007436;28;20199;-65
2022/09/19 07:01:17;;;;;;;4.72;3.20;;;;;;;9.91;54.59;94918.00;5008058;28;20300;-65
2022/09/19 07:03:43;;;;;;;3.38;2.72;;;;;;;10.07;54.94;94914.69;5013382;28;20230;-65
2022/09/19 07:06:09;;;;;;;6.88;3.53;;;;;;;10.28;54.91;94914.41;5005825;28;20269;-66
2022/09/19 07:08:34;;;;;;;6.88;3.90;;;;;;;10.40;55.31;94915.00;5004776;28;20226;-68
2022/09/19 07:11:00;;;;;;;4.07;3.10;;;;;;;10.52;54.34;94908.50;5005709;28;20209;-65
2022/09/19 07:13:26;;;;;;;4.78;3.58;;;;;;;10.67;53.68;94907.97;5004735;28;20230;-66
2022/09/19 07:15:52;;;;;;;3.20;2.90;;;;;;;10.68;52.81;94904.34;5008719;28;20242;-65
2022/09/19 07:18:18;;;;;;;6.03;2.53;;;;;;;10.76;52.84;94904.41;5009379;28;20231;-66
2022/09/19 07:20:43;;;;;;;5.03;2.40;;;;;;;10.83;52.31;94894.91;5007066;28;20277;-67
2022/09/19 07:23:17;;;;;;;6.03;2.80;;;;;;;10.99;52.30;94888.91;5007497;28;20330;-66
2022/09/19 07:25:43;;;;;;;3.25;2.58;;;;;;;11.03;52.54;94898.13;5023316;28;20326;-66
2022/09/19 07:28:14;;;;;;;7.20;3.20;;;;;;;11.14;52.30;94900.47;5006337;28;20234;-66
2022/09/19 07:30:43;;;;;;;4.70;2.88;;;;;;;11.04;52.38;94897.16;5005526;28;20310;-65
2022/09/19 07:33:14;;;;;;;12.02;3.55;;;;;;;11.29;52.36;94895.44;5006933;28;20235;-67
2022/09/19 07:35:42;;;;;;;6.32;3.78;;;;;;;11.40;52.40;94902.22;5006140;28;20239;-65
2022/09/19 07:38:19;;;;;;;4.13;3.65;;;;;;;11.36;52.92;94896.47;5003416;28;20282;-65
2022/09/19 07:40:45;;;;;;;5.72;3.05;;;;;;;11.52;50.99;94900.09;5006445;28;20210;-67
2022/09/19 07:43:13;;;;;;;5.20;3.00;;;;;;;11.50;51.04;94894.19;5007147;28;20213;-67
2022/09/19 07:45:44;;;;;;;7.03;2.78;;;;;;;11.66;50.99;94894.25;5007178;28;20309;-66
2022/09/19 07:48:10;;;;;;;2.78;2.17;;;;;;;11.68;49.99;94890.47;5005934;28;20262;-66
2022/09/19 07:50:36;;;;;;;3.80;2.40;;;;;;;11.70;49.95;94890.28;5006775;28;20257;-66
2022/09/19 07:53:07;;;;;;;3.67;2.65;;;;;;;11.72;50.20;94888.31;5010065;28;20214;-67
2022/09/19 07:55:35;;;;;;;6.35;3.33;;;;;;;11.77;50.21;94882.56;5003119;28;20213;-66
2022/09/19 07:58:03;;;;;;;4.20;3.33;;;;;;;11.80;50.78;94877.78;5005313;28;20219;-68
2022/09/19 08:00:30;;;;;;;5.15;3.05;;;;;;;12.01;50.61;94877.34;5007843;28;20308;-65
2022/09/19 08:03:01;;;;;;;5.20;2.85;;;;;;;12.22;50.74;94873.41;5007527;28;20222;-62
2022/09/19 08:05:28;;;;;;;3.55;2.67;;;;;;;12.26;49.80;94874.72;5005656;28;20288;-62
2022/09/19 08:07:55;;;;;;;4.38;2.40;;;;;;;12.17;50.35;94873.09;5005831;28;20218;-63
2022/09/19 08:10:21;;;;;;;4.03;2.80;;;;;;;12.12;51.01;94868.31;5007719;28;20260;-63
2022/09/19 08:12:48;;;;;;;4.20;2.90;;;;;;;12.28;49.49;94865.66;5001507;28;20246;-62
2022/09/19 08:15:15;;;;;;;4.32;2.47;;;;;;;12.30;48.54;94855.78;5008622;28;20252;-62
2022/09/19 08:17:56;;;;;;;3.60;2.50;;;;;;;12.31;48.98;94862.69;5007722;28;20222;-62
2022/09/19 08:20:22;;;;;;;4.22;2.97;;;;;;;12.28;48.19;94862.19;5030002;28;20296;-62
2022/09/19 08:22:47;;;;;;;5.80;2.45;;;;;;;12.38;48.35;94849.69;5006794;28;20210;-63
2022/09/19 08:25:14;;;;;;;4.03;3.10;;;;;;;12.42;48.54;94848.34;5006216;28;20233;-66
2022/09/19 08:27:44;;;;;;;5.80;2.85;;;;;;;12.47;48.32;94847.84;5001955;28;20598;-63
2022/09/19 08:30:09;;;;;;;4.57;2.42;;;;;;;12.64;47.81;94854.72;5008319;28;20226;-61
2022/09/19 08:32:35;;;;;;;4.50;2.72;;;;;;;12.65;47.97;94859.03;5007402;28;20223;-61
2022/09/19 08:35:00;;;;;;;2.70;2.50;;;;;;;12.73;48.28;94859.00;5010645;28;20216;-61
2022/09/19 08:37:26;;;;;;;3.53;2.70;;;;;;;12.80;48.21;94859.13;5004524;28;20191;-62
2022/09/19 08:43:01;;;;;;;6.10;2.80;;;;;;;12.84;47.55;94854.34;5006894;28;20322;-62
2022/09/19 08:46:03;;;;;;;5.30;3.17;;;;;;;12.92;46.34;94844.59;5004704;28;20241;-63
2022/09/19 08:48:54;;;;;;;6.28;2.50;;;;;;;12.87;46.72;94838.19;5003649;28;20236;-63
2022/09/19 08:51:41;;;;;;;5.20;3.20;;;;;;;13.07;46.24;94838.59;4969623;28;20227;-63
2022/09/19 08:54:16;;;;;;;4.68;2.47;;;;;;;13.17;45.44;94842.66;4970073;28;20273;-64
2022/09/19 08:56:43;;;;;;;5.43;2.92;;;;;;;13.32;45.30;94844.63;4984703;28;20234;-64
2022/09/19 08:59:14;;;;;;;4.55;3.10;;;;;;;13.45;46.13;94847.53;4988688;28;20786;-62
2022/09/19 09:01:40;;;;;;;4.60;3.03;;;;;;;13.61;46.32;94850.09;4987628;28;20223;-62
2022/09/19 09:04:22;;;;;;;3.60;2.25;;;;;;;13.81;46.16;94839.06;4983117;28;20226;-61
2022/09/19 09:07:15;;;;;;;3.67;3.05;;;;;;;13.94;45.33;94838.47;4974155;28;20235;-62
2022/09/19 09:10:18;;;;;;;4.18;2.67;;;;;;;14.07;44.84;94836.06;4972890;28;20297;-62
2022/09/19 09:12:44;;;;;;;4.95;2.33;;;;;;;14.17;45.31;94826.06;4978260;28;20275;-62
2022/09/19 09:15:28;;;;;;;2.72;2.28;;;;;;;14.25;44.81;94830.47;4988927;28;20235;-61
2022/09/19 09:18:12;;;;;;;3.50;2.47;;;;;;;14.34;43.51;94827.53;4973869;28;20228;-61
2022/09/19 09:21:05;;;;;;;3.35;2.13;;;;;;;14.54;43.96;94827.91;4988218;28;20227;-61
2022/09/19 09:23:36;;;;;;;2.78;2.00;;;;;;;14.84;43.26;94824.44;4989779;28;20258;-62
2022/09/19 09:26:12;;;;;;;4.53;2.40;;;;;;;14.92;41.09;94819.06;4974160;28;20235;-62
2022/09/19 09:28:48;;;;;;;2.55;1.60;;;;;;;15.08;38.46;94812.75;4994298;28;20341;-62
2022/09/19 09:31:29;;;;;;;3.25;2.10;;;;;;;15.18;38.72;94807.97;5008659;28;20234;-61
2022/09/19 09:34:34;;;;;;;4.32;2.33;;;;;;;15.44;39.45;94795.03;5007296;28;20238;-62
2022/09/19 09:37:04;;;;;;;1.92;1.48;;;;;;;15.52;38.12;94796.75;5009669;28;20233;-61
2022/09/19 09:39:57;;;;;;;2.75;1.55;;;;;;;15.68;36.84;94777.13;5009683;28;20234;-61
2022/09/19 09:42:26;;;;;;;3.17;1.98;;;;;;;15.70;35.75;94774.34;5010225;28;20274;-62
2022/09/19 09:45:09;;;;;;;1.70;1.48;;;;;;;15.70;35.40;94769.84;5012111;28;20227;-62
2022/09/19 09:47:44;;;;;;;2.95;1.67;;;;;;;15.85;36.18;94773.28;5009038;28;20230;-63
2022/09/19 09:50:52;;;;;;;1.73;1.48;;;;;;;15.98;36.17;94782.34;4999603;28;20250;-63
2022/09/19 09:53:39;;;;;;;1.85;1.50;;;;;;;15.93;34.97;94769.66;5007913;28;20852;-63
2022/09/19 09:56:44;;;;;;;3.17;1.33;;;;;;;16.15;35.12;94764.34;5003356;28;20242;-62
2022/09/19 10:05:33;;;;;;;2.53;1.52;;;;;;;16.40;34.36;94760.22;4970015;28;20406;-65
2022/09/19 10:08:15;;;;;;;3.72;1.50;;;;;;;16.43;34.01;94756.38;4965557;28;20211;-64
2022/09/19 10:10:43;;;;;;;2.33;1.90;;;;;;;16.51;33.95;94751.72;4973041;28;20215;-64
2022/09/19 10:13:27;;;;;;;2.58;1.92;;;;;;;16.69;34.16;94753.88;4953900;28;20725;-63
2022/09/19 10:16:02;;;;;;;3.72;2.40;;;;;;;17.07;33.74;94745.50;4944975;28;20236;-64
2022/09/19 10:18:38;;;;;;;3.78;2.08;;;;;;;17.18;33.58;94750.22;4968358;28;20228;-64
2022/09/19 10:21:04;;;;;;;2.85;1.52;;;;;;;17.24;33.00;94755.78;4952353;28;20224;-68
2022/09/19 10:23:32;;;;;;;3.38;1.65;;;;;;;17.38;33.46;94746.84;4960718;28;20311;-68
2022/09/19 10:26:02;;;;;;;4.13;1.60;;;;;;;17.30;31.88;94747.03;4951918;28;20208;-68
2022/09/19 10:28:37;;;;;;;3.35;1.52;;;;;;;17.58;32.23;94741.56;4963029;28;20229;-68
2022/09/19 10:31:04;;;;;;;5.47;1.98;;;;;;;17.62;31.58;94738.31;4961752;28;20248;-67
2022/09/19 10:33:45;;;;;;;3.05;1.80;;;;;;;17.66;31.53;94736.06;4949640;28;20260;-69
2022/09/19 10:36:21;;;;;;;3.03;1.58;;;;;;;17.53;32.31;94734.19;4948859;28;20251;-68
2022/09/19 10:38:54;;;;;;;2.70;1.90;;;;;;;17.54;31.95;94725.22;4959881;28;20251;-68
2022/09/19 10:41:22;;;;;;;5.38;2.20;;;;;;;17.83;32.59;94724.06;4956873;28;20218;-67
2022/09/19 10:43:57;;;;;;;3.20;1.92;;;;;;;17.97;32.62;94714.22;4999191;28;20211;-67
2022/09/19 10:46:44;;;;;;;2.58;1.70;;;;;;;18.05;31.31;94707.88;5002584;28;20206;-66
2022/09/19 10:49:42;;;;;;;4.35;1.65;;;;;;;18.43;31.19;94697.38;5005760;28;20237;-67
2022/09/19 10:52:08;;;;;;;2.95;1.85;;;;;;;18.50;31.37;94698.19;5004972;28;20230;-66
2022/09/19 10:54:37;;;;;;;3.60;1.80;;;;;;;18.20;30.70;94697.84;5010572;28;20298;-68
2022/09/19 10:57:04;;;;;;;5.20;3.00;;;;;;;18.53;31.27;94691.66;5003738;28;20364;-66
2022/09/19 10:59:36;;;;;;;2.92;2.00;;;;;;;18.45;31.14;94692.69;5007050;28;20203;-68
2022/09/19 11:02:24;;;;;;;2.92;1.73;;;;;;;18.70;29.76;94684.00;5009072;28;20583;-68
2022/09/19 11:04:56;;;;;;;3.25;1.77;;;;;;;18.66;31.02;94696.94;5006222;28;20589;-65
2022/09/19 11:07:29;;;;;;;5.70;2.08;;;;;;;18.57;30.33;94692.03;5006964;28;20298;-65
2022/09/19 11:09:59;;;;;;;2.83;1.85;;;;;;;18.73;30.94;94673.75;5008081;28;20258;-64
2022/09/19 11:12:26;;;;;;;3.75;2.00;;;;;;;18.77;31.58;94673.38;5004198;28;20223;-63
2022/09/19 11:14:55;;;;;;;4.93;1.85;;;;;;;19.12;29.75;94665.84;5007717;28;20233;-63
2022/09/19 11:17:46;;;;;;;4.03;1.58;;;;;;;19.23;30.39;94669.66;5007973;28;20708;-63
2022/09/19 11:20:48;;;;;;;4.22;1.80;;;;;;;19.17;31.73;94671.34;5005205;28;20236;-65
2022/09/19 11:23:32;;;;;;;4.57;2.00;;;;;;;19.46;31.70;94664.59;4968800;28;20310;-67
2022/09/19 11:26:00;;;;;;;5.60;1.98;;;;;;;19.55;28.88;94659.81;4956118;28;20220;-65
2022/09/19 11:28:53;;;;;;;5.22;1.98;;;;;;;19.67;29.90;94655.44;4950339;28;20229;-66
2022/09/19 11:31:37;;;;;;;4.18;2.03;;;;;;;19.83;29.92;94648.75;4971055;28;20318;-66
2022/09/19 11:34:21;;;;;;;4.10;1.73;;;;;;;19.93;29.93;94643.75;4961751;28;20232;-66
2022/09/19 11:36:54;;;;;;;7.18;2.50;;;;;;;20.14;30.14;94650.53;4965292;28;20224;-67
2022/09/19 11:39:30;;;;;;;4.65;2.33;;;;;;;19.97;30.00;94652.97;4968122;28;20224;-66
2022/09/19 11:42:35;;;;;;;3.10;2.28;;;;;;;20.36;29.77;94636.78;4959555;28;20259;-65
2022/09/19 11:45:17;;;;;;;5.07;2.50;;;;;;;20.73;28.62;94637.63;4880176;29;20225;-68
2022/09/19 11:47:54;;;;;;;5.90;2.40;;;;;;;20.89;28.13;94636.19;4883541;29;20219;-72
2022/09/19 11:50:59;;;;;;;3.53;2.47;;;;;;;21.00;26.88;94631.94;4876241;29;20250;-72
2022/09/19 11:53:36;;;;;;;3.65;2.38;;;;;;;21.09;27.06;94620.72;4890481;29;20245;-69
2022/09/19 11:56:12;;;;;;;4.07;2.42;;;;;;;21.26;27.12;94625.44;4876863;29;20431;-72
2022/09/19 11:58:54;;;;;;;9.32;2.95;;;;;;;21.38;26.12;94633.50;4890105;29;20237;-73
2022/09/19 12:01:38;;;;;;;4.63;2.60;;;;;;;21.48;26.73;94629.22;4895112;29;20258;-70
2022/09/19 12:04:23;;;;;;;2.65;1.80;;;;;;;21.55;26.93;94621.94;4889161;29;20222;-72
2022/09/19 12:07:14;;;;;;;5.70;2.30;;;;;;;21.65;26.48;94621.38;4887319;29;20241;-73
2022/09/19 12:09:52;;;;;;;5.43;2.88;;;;;;;21.92;26.69;94624.44;4901813;29;20309;-70
2022/09/19 12:12:21;;;;;;;4.90;2.58;;;;;;;22.25;24.67;94625.75;4883095;29;20253;-66
2022/09/19 12:14:52;;;;;;;4.03;2.00;;;;;;;20.93;25.24;94605.31;4894460;29;20305;-70
2022/09/19 12:17:26;;;;;;;4.03;2.33;;;;;;;21.35;24.61;94592.75;4901510;29;20233;-66
2022/09/19 12:19:57;;;;;;;3.72;2.20;;;;;;;21.77;24.12;94594.63;4911696;29;20300;-67